createdAt,value
2022-10-30T00:00:41.488Z,27.90
2022-10-30T00:03:16.309Z,17.73
2022-10-30T00:05:48.237Z,21.90
2022-10-30T00:08:17.382Z,25.30
2022-10-30T00:10:45.300Z,16.47
2022-10-30T00:13:13.162Z,22.27
2022-10-30T00:15:40.451Z,33.93
2022-10-30T00:18:07.342Z,20.90
2022-10-30T00:20:37.511Z,26.03
2022-10-30T00:23:04.360Z,20.33
2022-10-30T00:25:31.210Z,18.67
2022-10-30T00:27:57.986Z,17.40
2022-10-30T00:30:24.806Z,29.70
2022-10-30T00:32:51.566Z,43.90
2022-10-30T00:35:18.509Z,49.47
2022-10-30T00:37:45.316Z,28.67
2022-10-30T00:40:19.337Z,22.47
2022-10-30T00:42:46.401Z,98.67
2022-10-30T00:45:15.581Z,84.37
2022-10-30T00:47:50.283Z,204.07
2022-10-30T00:50:28.623Z,20.13
2022-10-30T00:53:00.880Z,45.10
2022-10-30T00:55:34.477Z,21.10
2022-10-30T00:58:03.336Z,21.73
2022-10-30T01:00:31.414Z,20.00
2022-10-30T01:02:58.894Z,21.30
2022-10-30T01:05:28.630Z,22.47
2022-10-30T01:07:55.832Z,25.37
2022-10-30T01:10:23.047Z,14.10
2022-10-30T01:12:52.067Z,15.10
2022-10-30T01:15:23.530Z,15.90
2022-10-30T01:18:26.669Z,31.80
2022-10-30T01:21:19.650Z,43.00
2022-10-30T01:23:55.560Z,43.83
2022-10-30T01:26:25.455Z,43.80
2022-10-30T01:29:10.928Z,39.40
2022-10-30T01:32:04.738Z,27.40
2022-10-30T01:35:05.420Z,24.43
2022-10-30T01:37:40.042Z,25.20
2022-10-30T01:40:13.272Z,18.77
2022-10-30T01:42:50.791Z,49.97
2022-10-30T01:45:29.638Z,104.97
2022-10-30T01:48:18.353Z,80.07
2022-10-30T01:50:57.793Z,130.40
2022-10-30T01:53:45.954Z,146.60
2022-10-30T01:56:21.755Z,85.00
2022-10-30T01:59:22.351Z,133.50
2022-10-30T02:01:49.794Z,235.37
2022-10-30T02:04:17.337Z,76.03
2022-10-30T02:06:44.507Z,100.00
2022-10-30T02:09:11.535Z,147.33
2022-10-30T02:11:39.136Z,122.37
2022-10-30T02:14:08.468Z,127.83
2022-10-30T02:16:38.446Z,114.27
2022-10-30T02:19:07.754Z,168.23
2022-10-30T02:21:34.784Z,128.83
2022-10-30T02:24:01.547Z,90.90
2022-10-30T02:26:28.418Z,115.97
2022-10-30T02:28:55.218Z,204.50
2022-10-30T02:31:22.826Z,53.80
2022-10-30T02:33:49.782Z,161.30
2022-10-30T02:36:16.670Z,100.57
2022-10-30T02:38:44.417Z,67.70
2022-10-30T02:41:12.053Z,67.33
2022-10-30T02:43:38.946Z,89.67
2022-10-30T02:46:05.945Z,23.47
2022-10-30T02:48:33.145Z,51.27
2022-10-30T02:51:03.993Z,73.13
2022-10-30T02:53:31.348Z,32.53
2022-10-30T02:56:04.002Z,22.23
2022-10-30T02:58:30.864Z,22.47
2022-10-30T03:00:57.723Z,13.63
2022-10-30T03:03:24.603Z,23.53
2022-10-30T03:05:51.393Z,20.00
2022-10-30T03:08:18.226Z,20.57
2022-10-30T03:10:45.101Z,36.97
2022-10-30T03:13:11.906Z,41.97
2022-10-30T03:15:38.713Z,15.83
2022-10-30T03:18:05.599Z,19.80
2022-10-30T03:20:32.461Z,51.20
2022-10-30T03:22:59.302Z,41.77
2022-10-30T03:25:26.100Z,134.23
2022-10-30T03:27:53.086Z,18.93
2022-10-30T03:30:19.947Z,39.90
2022-10-30T03:32:46.996Z,82.33
2022-10-30T03:35:13.891Z,51.47
2022-10-30T03:37:40.849Z,28.17
2022-10-30T03:40:08.262Z,67.77
2022-10-30T03:42:39.380Z,46.73
2022-10-30T03:45:06.844Z,32.50
2022-10-30T03:47:33.623Z,55.70
2022-10-30T03:50:00.455Z,41.50
2022-10-30T03:52:27.729Z,38.73
2022-10-30T03:54:54.558Z,91.97
2022-10-30T03:57:21.414Z,30.50
2022-10-30T03:59:48.244Z,53.67
2022-10-30T04:02:15.319Z,35.53
2022-10-30T04:04:42.311Z,28.17
2022-10-30T04:07:09.116Z,44.50
2022-10-30T04:09:35.928Z,28.87
2022-10-30T04:12:02.841Z,68.20
2022-10-30T04:14:29.660Z,27.57
2022-10-30T04:16:56.501Z,26.10
2022-10-30T04:19:23.405Z,20.30
2022-10-30T04:21:51.356Z,64.87
2022-10-30T04:24:18.840Z,39.43
2022-10-30T04:26:45.704Z,33.47
2022-10-30T04:29:12.533Z,92.70
2022-10-30T04:31:39.529Z,89.37
2022-10-30T04:34:06.423Z,21.47
2022-10-30T04:36:34.101Z,130.03
2022-10-30T04:39:02.489Z,53.07
2022-10-30T04:41:29.335Z,42.27
2022-10-30T04:43:56.200Z,38.23
2022-10-30T04:46:23.058Z,153.77
2022-10-30T04:48:49.948Z,111.33
2022-10-30T04:51:16.785Z,117.23
2022-10-30T04:53:43.569Z,74.77
2022-10-30T04:56:10.732Z,261.13
2022-10-30T04:58:37.537Z,161.00
2022-10-30T05:01:06.026Z,156.33
2022-10-30T05:03:33.160Z,22.43
2022-10-30T05:06:06.812Z,91.57
2022-10-30T05:08:33.807Z,22.60
2022-10-30T05:11:05.110Z,68.87
2022-10-30T05:13:32.432Z,141.67
2022-10-30T05:15:59.224Z,132.10
2022-10-30T05:18:26.043Z,78.67
2022-10-30T05:20:52.847Z,19.27
2022-10-30T05:23:19.663Z,97.23
2022-10-30T05:25:46.468Z,101.50
2022-10-30T05:28:13.307Z,18.97
2022-10-30T05:30:40.105Z,27.60
2022-10-30T05:33:10.097Z,78.57
2022-10-30T05:35:38.267Z,41.73
2022-10-30T05:38:07.456Z,237.27
2022-10-30T05:40:35.709Z,37.60
2022-10-30T05:43:03.986Z,66.90
2022-10-30T05:45:31.069Z,55.40
2022-10-30T05:48:00.767Z,27.70
2022-10-30T05:50:29.022Z,24.60
2022-10-30T05:53:00.438Z,21.83
2022-10-30T05:55:28.339Z,46.50
2022-10-30T05:58:03.631Z,52.50
2022-10-30T06:00:33.424Z,54.47
2022-10-30T06:03:05.604Z,72.20
2022-10-30T06:05:34.859Z,189.17
2022-10-30T06:08:02.293Z,160.60
2022-10-30T06:10:29.571Z,226.43
2022-10-30T06:13:02.065Z,254.47
2022-10-30T06:15:30.090Z,93.20
2022-10-30T06:17:58.094Z,102.90
2022-10-30T06:20:28.260Z,76.67
2022-10-30T06:22:56.100Z,63.43
2022-10-30T06:25:23.034Z,93.83
2022-10-30T06:27:50.152Z,135.23
2022-10-30T06:30:18.033Z,65.43
2022-10-30T06:32:44.861Z,180.97
2022-10-30T06:35:11.924Z,100.77
2022-10-30T06:37:42.169Z,72.67
2022-10-30T06:40:09.665Z,79.87
2022-10-30T06:42:46.748Z,94.83
2022-10-30T06:45:15.558Z,89.80
2022-10-30T06:47:43.184Z,61.63
2022-10-30T06:50:16.156Z,143.07
2022-10-30T06:52:43.064Z,57.60
2022-10-30T06:55:10.718Z,81.27
2022-10-30T06:57:37.765Z,70.57
2022-10-30T07:00:06.474Z,135.20
2022-10-30T07:02:33.490Z,138.60
2022-10-30T07:05:00.314Z,116.07
2022-10-30T07:07:27.258Z,216.50
2022-10-30T07:09:54.099Z,88.70
2022-10-30T07:12:20.984Z,260.73
2022-10-30T07:14:47.808Z,183.43
2022-10-30T07:17:14.651Z,38.60
2022-10-30T07:19:41.483Z,226.87
2022-10-30T07:22:08.280Z,44.37
2022-10-30T07:24:35.072Z,80.87
2022-10-30T07:27:01.903Z,39.27
2022-10-30T07:29:28.708Z,106.23
2022-10-30T07:32:03.123Z,62.00
2022-10-30T07:34:30.965Z,22.53
2022-10-30T07:36:58.103Z,74.83
2022-10-30T07:39:24.894Z,20.93
2022-10-30T07:41:51.733Z,98.70
2022-10-30T07:44:18.543Z,19.63
2022-10-30T07:46:45.359Z,25.53
2022-10-30T07:49:12.272Z,58.33
2022-10-30T07:51:39.073Z,136.63
2022-10-30T07:54:05.897Z,72.33
2022-10-30T07:56:32.702Z,51.33
2022-10-30T07:58:59.584Z,20.97
2022-10-30T08:01:26.531Z,78.43
2022-10-30T08:03:53.637Z,28.17
2022-10-30T08:06:23.198Z,91.63
2022-10-30T08:08:53.176Z,10.03
2022-10-30T08:11:20.007Z,38.63
2022-10-30T08:13:46.979Z,40.60
2022-10-30T08:16:14.092Z,51.67
2022-10-30T08:18:42.597Z,47.17
2022-10-30T08:21:10.051Z,224.77
2022-10-30T08:23:37.080Z,125.50
2022-10-30T08:26:04.097Z,59.00
2022-10-30T08:28:32.914Z,23.30
2022-10-30T08:31:01.146Z,26.53
2022-10-30T08:33:28.431Z,18.80
2022-10-30T08:35:57.405Z,11.83
2022-10-30T08:38:25.145Z,24.23
2022-10-30T08:40:52.522Z,25.70
2022-10-30T08:43:19.735Z,14.60
2022-10-30T08:45:46.825Z,10.77
2022-10-30T08:48:16.231Z,12.93
2022-10-30T08:50:43.394Z,18.27
2022-10-30T08:53:15.497Z,21.83
2022-10-30T08:55:42.972Z,32.43
2022-10-30T08:58:09.821Z,50.00
2022-10-30T09:00:36.752Z,44.57
2022-10-30T09:03:04.110Z,12.90
2022-10-30T09:05:31.218Z,97.33
2022-10-30T09:08:01.964Z,34.57
2022-10-30T09:10:29.979Z,17.73
2022-10-30T09:12:58.080Z,17.37
2022-10-30T09:15:26.385Z,15.37
2022-10-30T09:17:57.788Z,19.00
2022-10-30T09:20:25.000Z,20.53
2022-10-30T09:22:51.998Z,21.43
2022-10-30T09:25:19.641Z,16.43
2022-10-30T09:27:47.104Z,15.10
2022-10-30T09:30:14.659Z,13.00
2022-10-30T09:32:41.860Z,13.83
2022-10-30T09:35:10.294Z,21.30
2022-10-30T09:37:37.822Z,14.63
2022-10-30T09:40:05.758Z,13.17
2022-10-30T09:42:45.125Z,14.63
2022-10-30T09:48:17.166Z,15.57
2022-10-30T09:51:05.123Z,17.47
2022-10-30T09:53:47.241Z,14.47
2022-10-30T09:56:27.366Z,15.10
2022-10-30T09:59:00.962Z,16.07
2022-10-30T10:01:36.664Z,13.97
2022-10-30T10:04:26.774Z,15.17
2022-10-30T10:07:02.359Z,15.37
2022-10-30T10:09:31.519Z,13.50
2022-10-30T10:12:20.099Z,15.80
2022-10-30T10:14:48.381Z,15.13
2022-10-30T10:17:38.813Z,16.27
2022-10-30T10:20:14.121Z,13.43
2022-10-30T10:22:49.742Z,13.20
2022-10-30T10:25:19.395Z,14.87
2022-10-30T10:28:15.361Z,13.03
2022-10-30T10:31:23.556Z,11.07
2022-10-30T10:34:03.002Z,9.93
2022-10-30T10:37:03.046Z,10.47
2022-10-30T10:40:02.336Z,10.93
2022-10-30T10:43:04.293Z,11.80
2022-10-30T10:45:37.698Z,11.40
2022-10-30T10:48:04.639Z,10.53
2022-10-30T10:50:34.091Z,10.00
2022-10-30T10:53:11.721Z,10.20
2022-10-30T10:55:39.895Z,10.93
2022-10-30T10:58:17.065Z,9.23
2022-10-30T11:00:45.967Z,10.07
2022-10-30T11:03:20.224Z,9.57
2022-10-30T11:05:53.044Z,8.53
2022-10-30T11:08:29.375Z,9.20
2022-10-30T11:11:04.762Z,9.97
2022-10-30T11:13:38.958Z,8.70
2022-10-30T11:16:27.188Z,11.67
2022-10-30T11:19:08.122Z,9.17
2022-10-30T11:21:47.942Z,8.57
2022-10-30T11:24:34.760Z,9.03
2022-10-30T11:27:28.358Z,8.43
2022-10-30T11:29:59.556Z,8.70
2022-10-30T11:32:29.389Z,9.13
2022-10-30T11:35:08.024Z,8.60
2022-10-30T11:37:37.070Z,11.30
2022-10-30T11:40:23.139Z,8.83
2022-10-30T11:43:03.078Z,8.37
2022-10-30T11:45:34.065Z,8.47
2022-10-30T11:48:03.049Z,8.77
2022-10-30T11:50:32.470Z,7.70
2022-10-30T11:53:03.364Z,8.83
2022-10-30T11:55:48.190Z,9.07
2022-10-30T11:58:32.079Z,10.30
2022-10-30T12:01:06.314Z,7.80
2022-10-30T12:03:41.555Z,8.77
2022-10-30T12:06:39.314Z,8.03
2022-10-30T12:09:22.667Z,7.80
2022-10-30T12:11:50.037Z,8.57
2022-10-30T12:14:26.680Z,8.30
2022-10-30T12:16:56.734Z,8.23
2022-10-30T12:19:25.334Z,7.33
2022-10-30T12:21:54.659Z,9.93
2022-10-30T12:24:27.161Z,7.80
2022-10-30T12:26:55.731Z,7.70
2022-10-30T12:29:41.680Z,8.50
2022-10-30T12:32:19.256Z,8.47
2022-10-30T12:35:03.753Z,7.37
2022-10-30T12:37:36.428Z,7.60
2022-10-30T12:40:21.574Z,11.20
2022-10-30T12:43:02.743Z,7.90
2022-10-30T12:45:43.508Z,9.13
2022-10-30T12:48:22.953Z,10.27
2022-10-30T12:51:08.501Z,7.47
2022-10-30T12:53:52.464Z,8.00
2022-10-30T12:56:24.903Z,7.63
2022-10-30T12:59:17.280Z,9.90
2022-10-30T13:01:57.154Z,9.80
2022-10-30T13:04:28.933Z,9.20
2022-10-30T13:07:19.946Z,7.73
2022-10-30T13:09:49.485Z,8.63
2022-10-30T13:12:31.796Z,10.43
2022-10-30T13:15:11.970Z,7.50
2022-10-30T13:17:38.775Z,8.70
2022-10-30T13:20:14.196Z,8.00
2022-10-30T13:23:02.852Z,8.20
2022-10-30T13:25:48.782Z,7.07
2022-10-30T13:28:33.595Z,10.20
2022-10-30T13:31:22.792Z,7.50
2022-10-30T13:34:03.409Z,6.83
2022-10-30T13:36:33.291Z,7.40
2022-10-30T13:39:20.434Z,8.40
2022-10-30T13:41:47.235Z,7.77
2022-10-30T13:44:23.038Z,8.07
2022-10-30T13:47:05.565Z,10.40
2022-10-30T13:49:53.590Z,9.03
2022-10-30T13:52:22.392Z,7.07
2022-10-30T13:55:03.693Z,9.13
2022-10-30T13:57:50.574Z,6.13
2022-10-30T14:00:39.385Z,6.40
2022-10-30T14:03:33.670Z,6.10
2022-10-30T14:06:13.926Z,8.53
2022-10-30T14:09:11.902Z,5.83
2022-10-30T14:11:38.735Z,9.13
2022-10-30T14:14:23.896Z,14.13
2022-10-30T14:17:23.205Z,8.13
2022-10-30T14:20:10.167Z,9.07
2022-10-30T14:22:40.586Z,8.17
2022-10-30T14:25:15.780Z,8.47
2022-10-30T14:27:43.059Z,7.90
2022-10-30T14:30:20.598Z,6.00
2022-10-30T14:32:51.879Z,6.13
2022-10-30T14:35:36.702Z,8.13
2022-10-30T14:38:09.539Z,16.40
2022-10-30T14:40:42.340Z,8.60
2022-10-30T14:43:33.202Z,7.40
2022-10-30T14:46:13.994Z,9.90
2022-10-30T14:49:06.261Z,9.07
2022-10-30T14:51:45.121Z,8.83
2022-10-30T14:54:39.226Z,8.10
2022-10-30T14:57:40.593Z,5.80
2022-10-30T15:00:29.477Z,12.30
2022-10-30T15:03:21.087Z,29.73
2022-10-30T15:05:56.578Z,35.77
2022-10-30T15:08:41.891Z,9.20
2022-10-30T15:11:37.429Z,7.60
2022-10-30T15:14:21.729Z,8.23
2022-10-30T15:16:59.595Z,9.67
2022-10-30T15:19:27.769Z,10.43
2022-10-30T15:21:56.679Z,11.30
2022-10-30T15:24:31.988Z,13.60
2022-10-30T15:27:01.792Z,8.63
2022-10-30T15:29:32.329Z,8.77
2022-10-30T15:32:00.458Z,8.07
2022-10-30T15:34:29.303Z,12.00
2022-10-30T15:36:56.667Z,11.43
2022-10-30T15:39:24.226Z,18.17
2022-10-30T15:41:57.426Z,13.03
2022-10-30T15:44:31.097Z,9.70
2022-10-30T15:47:01.318Z,9.70
2022-10-30T15:49:34.438Z,15.00
2022-10-30T15:52:04.713Z,12.07
2022-10-30T15:54:33.657Z,8.70
2022-10-30T15:57:36.527Z,12.67
2022-10-30T15:59:57.548Z,13.07
2022-10-30T16:02:26.908Z,11.23
2022-10-30T16:04:54.468Z,12.13
2022-10-30T16:07:24.751Z,16.20
2022-10-30T16:10:02.897Z,13.33
2022-10-30T16:12:34.522Z,11.80
2022-10-30T16:15:15.525Z,10.50
2022-10-30T16:17:42.433Z,16.80
2022-10-30T16:20:10.668Z,10.80
2022-10-30T16:22:39.630Z,15.07
2022-10-30T16:25:12.939Z,10.90
2022-10-30T16:27:46.314Z,101.47
2022-10-30T16:30:16.981Z,16.00
2022-10-30T16:32:52.820Z,18.60
2022-10-30T16:35:21.805Z,12.03
2022-10-30T16:37:50.671Z,14.47
2022-10-30T16:40:24.220Z,11.10
2022-10-30T16:42:58.043Z,14.50
2022-10-30T16:45:34.290Z,17.73
2022-10-30T16:50:49.841Z,19.30
2022-10-30T16:53:24.556Z,14.33
2022-10-30T16:55:52.354Z,17.10
2022-10-30T16:58:20.900Z,17.07
2022-10-30T17:00:56.610Z,18.63
2022-10-30T17:03:26.563Z,29.50
2022-10-30T17:06:02.352Z,22.57
2022-10-30T17:08:42.885Z,26.40
2022-10-30T17:11:21.003Z,28.53
2022-10-30T17:13:58.313Z,24.63
2022-10-30T17:16:32.142Z,32.07
2022-10-30T17:19:01.695Z,22.20
2022-10-30T17:21:40.648Z,38.97
2022-10-30T17:24:20.261Z,29.93
2022-10-30T17:26:56.599Z,20.90
2022-10-30T17:29:38.725Z,23.33
2022-10-30T17:32:20.365Z,17.33
2022-10-30T17:34:48.464Z,17.40
2022-10-30T17:37:15.310Z,18.13
2022-10-30T17:39:42.190Z,13.90
2022-10-30T17:42:10.230Z,18.93
2022-10-30T17:44:37.195Z,21.63
2022-10-30T17:47:24.278Z,16.20
2022-10-30T17:49:51.117Z,12.83
2022-10-30T17:52:22.518Z,20.03
2022-10-30T17:54:49.734Z,20.40
2022-10-30T17:57:16.882Z,20.30
2022-10-30T17:59:43.850Z,18.70
2022-10-30T18:02:16.261Z,17.13
2022-10-30T18:04:43.690Z,16.07
2022-10-30T18:07:11.954Z,23.63
2022-10-30T18:09:39.502Z,20.80
2022-10-30T18:12:08.208Z,21.70
2022-10-30T18:14:35.140Z,33.20
2022-10-30T18:17:02.103Z,26.27
2022-10-30T18:19:29.006Z,22.00
2022-10-30T18:21:55.822Z,17.43
2022-10-30T18:24:22.818Z,19.43
2022-10-30T18:26:49.814Z,21.20
2022-10-30T18:29:16.671Z,18.33
2022-10-30T18:31:43.480Z,21.83
2022-10-30T18:34:19.649Z,25.70
2022-10-30T18:36:46.506Z,25.67
2022-10-30T18:39:13.567Z,27.20
2022-10-30T18:41:43.338Z,21.93
2022-10-30T18:44:14.835Z,30.50
2022-10-30T18:46:42.144Z,21.70
2022-10-30T18:49:09.026Z,24.30
2022-10-30T18:51:35.903Z,25.33
2022-10-30T18:54:03.273Z,22.73
2022-10-30T18:56:32.637Z,21.43
2022-10-30T18:59:02.282Z,24.40
2022-10-30T19:01:32.464Z,20.73
2022-10-30T19:04:02.348Z,24.03
2022-10-30T19:06:29.356Z,25.63
2022-10-30T19:08:56.174Z,21.00
2022-10-30T19:11:25.108Z,27.87
2022-10-30T19:13:53.753Z,18.50
2022-10-30T19:16:21.716Z,19.33
2022-10-30T19:18:48.917Z,18.33
2022-10-30T19:21:21.641Z,21.10
2022-10-30T19:23:48.853Z,19.90
2022-10-30T19:26:17.581Z,22.43
2022-10-30T19:28:45.629Z,23.20
2022-10-30T19:31:17.625Z,20.17
2022-10-30T19:33:44.681Z,18.63
2022-10-30T19:36:28.761Z,18.53
2022-10-30T19:38:56.212Z,24.10
2022-10-30T19:41:24.767Z,23.07
2022-10-30T19:43:52.761Z,16.93
2022-10-30T19:46:19.830Z,15.57
2022-10-30T19:49:02.082Z,21.77
2022-10-30T19:51:29.234Z,23.20
2022-10-30T19:53:56.197Z,19.03
2022-10-30T19:56:23.306Z,19.60
2022-10-30T19:58:50.536Z,24.27
2022-10-30T20:01:17.694Z,19.30
2022-10-30T20:03:44.693Z,25.20
2022-10-30T20:06:12.466Z,24.63
2022-10-30T20:08:39.900Z,22.23
2022-10-30T20:11:06.867Z,21.50
2022-10-30T20:13:35.109Z,16.50
2022-10-30T20:16:04.979Z,23.53
2022-10-30T20:18:34.536Z,22.17
2022-10-30T20:21:09.986Z,23.70
2022-10-30T20:23:37.273Z,27.60
2022-10-30T20:26:18.857Z,22.10
2022-10-30T20:28:45.791Z,26.87
2022-10-30T20:31:13.256Z,18.80
2022-10-30T20:33:40.178Z,19.87
2022-10-30T20:36:07.206Z,78.40
2022-10-30T20:38:34.692Z,41.87
2022-10-30T20:41:04.086Z,24.63
2022-10-30T20:43:36.506Z,21.33
2022-10-30T20:46:05.613Z,15.80
2022-10-30T20:48:32.709Z,17.03
2022-10-30T20:51:01.390Z,22.80
2022-10-30T20:53:29.265Z,20.00
2022-10-30T20:55:56.552Z,20.27
2022-10-30T20:58:24.263Z,25.10
2022-10-30T21:00:53.954Z,24.47
2022-10-30T21:03:20.761Z,20.57
2022-10-30T21:05:58.653Z,17.37
2022-10-30T21:08:26.563Z,20.77
2022-10-30T21:10:53.496Z,19.00
2022-10-30T21:13:20.311Z,17.63
2022-10-30T21:15:47.169Z,20.90
2022-10-30T21:18:13.978Z,19.37
2022-10-30T21:20:43.499Z,20.40
2022-10-30T21:23:10.351Z,19.23
2022-10-30T21:25:37.196Z,23.27
2022-10-30T21:28:04.292Z,24.87
2022-10-30T21:30:31.196Z,19.00
2022-10-30T21:32:59.598Z,21.00
2022-10-30T21:35:27.626Z,21.63
2022-10-30T21:37:54.607Z,19.97
2022-10-30T21:40:21.425Z,22.87
2022-10-30T21:42:48.876Z,23.67
2022-10-30T21:45:15.937Z,16.57
2022-10-30T21:47:42.774Z,19.73
2022-10-30T21:50:12.283Z,22.23
2022-10-30T21:52:40.225Z,21.33
2022-10-30T21:55:07.773Z,18.93
2022-10-30T21:57:35.284Z,19.03
2022-10-30T22:00:05.822Z,53.57
2022-10-30T22:02:34.321Z,23.27
2022-10-30T22:05:01.172Z,19.80
2022-10-30T22:07:28.013Z,22.43
2022-10-30T22:09:54.883Z,23.07
2022-10-30T22:12:21.676Z,24.10
2022-10-30T22:14:48.520Z,23.07
2022-10-30T22:17:15.324Z,27.83
2022-10-30T22:19:42.146Z,21.93
2022-10-30T22:22:09.312Z,31.07
2022-10-30T22:24:36.181Z,29.97
2022-10-30T22:27:03.242Z,20.80
2022-10-30T22:29:30.063Z,20.90
2022-10-30T22:31:56.892Z,36.87
2022-10-30T22:34:23.714Z,20.47
2022-10-30T22:36:50.598Z,66.83
2022-10-30T22:39:17.401Z,134.77
2022-10-30T22:41:44.268Z,80.73
2022-10-30T22:44:13.539Z,157.57
2022-10-30T22:46:40.553Z,64.33
2022-10-30T22:49:08.242Z,47.20
2022-10-30T22:51:37.630Z,159.30
2022-10-30T22:54:06.516Z,254.83
2022-10-30T22:56:35.779Z,220.10
2022-10-30T22:59:08.494Z,245.10
2022-10-30T23:01:36.539Z,204.93
2022-10-30T23:04:05.292Z,306.77
2022-10-30T23:06:34.034Z,385.77
2022-10-30T23:09:02.830Z,149.63
2022-10-30T23:11:30.298Z,63.20
2022-10-30T23:13:57.249Z,99.90
2022-10-30T23:16:26.216Z,136.93
2022-10-30T23:18:55.745Z,276.60
2022-10-30T23:21:24.830Z,160.57
2022-10-30T23:23:52.075Z,351.67
2022-10-30T23:26:28.416Z,262.73
2022-10-30T23:28:56.876Z,130.47
2022-10-30T23:31:33.594Z,182.33
2022-10-30T23:34:02.913Z,108.40
2022-10-30T23:36:29.971Z,168.77
2022-10-30T23:38:59.184Z,116.63
2022-10-30T23:41:28.607Z,93.70
2022-10-30T23:44:05.206Z,99.90
2022-10-30T23:46:32.932Z,166.47
2022-10-30T23:49:00.030Z,92.10
2022-10-30T23:51:27.036Z,134.90
2022-10-30T23:53:54.368Z,76.57
2022-10-30T23:56:21.761Z,97.00
2022-10-30T23:58:51.307Z,127.40
